TimePDT,TemperatureF,Dew PointF,Humidity,Sea Level PressureIn,VisibilityMPH,Wind Direction,Wind SpeedMPH,Gust SpeedMPH,PrecipitationIn,Events,Conditions,WindDirDegrees,DateUTC
12:52 AM,66.0,51.1,59,29.91,10.0,Calm,Calm,-,N/A,,Clear,0,2012-10-18 07:52:00
1:52 AM,62.1,50.0,65,29.89,10.0,Calm,Calm,-,N/A,,Clear,0,2012-10-18 08:52:00
2:52 AM,62.1,51.1,67,29.91,10.0,West,4.6,-,N/A,,Clear,270,2012-10-18 09:52:00
3:52 AM,63.0,51.1,65,29.90,10.0,Calm,Calm,-,N/A,,Clear,0,2012-10-18 10:52:00
4:52 AM,62.1,48.9,62,29.91,10.0,Calm,Calm,-,N/A,,Clear,0,2012-10-18 11:52:00
5:52 AM,62.1,52.0,70,29.93,10.0,NW,3.5,-,N/A,,Clear,310,2012-10-18 12:52:00
6:52 AM,63.0,51.1,65,29.95,10.0,Calm,Calm,-,N/A,,Clear,0,2012-10-18 13:52:00
7:52 AM,69.1,52.0,54,29.97,10.0,Calm,Calm,-,N/A,,Clear,0,2012-10-18 14:52:00
8:52 AM,78.1,52.0,40,29.99,10.0,North,3.5,-,N/A,,Clear,350,2012-10-18 15:52:00
9:52 AM,82.0,61.0,49,29.99,10.0,Calm,Calm,-,N/A,,Clear,0,2012-10-18 16:52:00
10:52 AM,84.9,69.1,59,30.01,10.0,Variable,3.5,-,N/A,,Clear,0,2012-10-18 17:52:00
11:52 AM,88.0,68.0,51,30.00,10.0,East,4.6,-,N/A,,Clear,90,2012-10-18 18:52:00
12:52 PM,91.0,64.9,42,29.94,10.0,Calm,Calm,-,N/A,,Clear,0,2012-10-18 19:52:00
1:52 PM,93.0,62.1,36,29.93,10.0,Variable,3.5,-,N/A,,Clear,0,2012-10-18 20:52:00
2:52 PM,93.0,62.1,36,29.91,10.0,SE,6.9,-,N/A,,Clear,140,2012-10-18 21:52:00
3:52 PM,93.0,55.9,29,29.91,10.0,SE,9.2,-,N/A,,Clear,140,2012-10-18 22:52:00
4:52 PM,90.0,64.9,43,29.87,10.0,SE,8.1,-,N/A,,Clear,140,2012-10-18 23:52:00
5:52 PM,87.1,66.0,49,29.86,10.0,Calm,Calm,-,N/A,,Clear,0,2012-10-19 00:52:00
6:52 PM,81.0,64.0,56,29.87,10.0,SSW,3.5,-,N/A,,Clear,210,2012-10-19 01:52:00
7:52 PM,78.1,64.0,62,29.88,10.0,NNE,3.5,-,N/A,,Clear,20,2012-10-19 02:52:00
8:52 PM,79.0,64.9,62,29.89,10.0,NNW,3.5,-,N/A,,Clear,330,2012-10-19 03:52:00
9:52 PM,80.1,62.1,54,29.90,10.0,NNW,6.9,-,N/A,,Clear,330,2012-10-19 04:52:00
10:52 PM,79.0,60.1,52,29.91,10.0,North,8.1,-,N/A,,Clear,350,2012-10-19 05:52:00
11:52 PM,78.1,60.1,54,29.90,10.0,NNW,8.1,-,N/A,,Clear,340,2012-10-19 06:52:00